createdAt,value
2023-01-12T00:02:12.812Z,85.48
2023-01-12T00:04:40.508Z,85.45
2023-01-12T00:07:09.890Z,84.81
2023-01-12T00:09:38.150Z,85.34
2023-01-12T00:12:08.470Z,85.78
2023-01-12T00:14:37.177Z,86.75
2023-01-12T00:17:05.707Z,86.76
2023-01-12T00:19:36.879Z,86.80
2023-01-12T00:22:09.615Z,87.50
2023-01-12T00:24:39.754Z,87.30
2023-01-12T00:27:10.177Z,87.34
2023-01-12T00:29:38.924Z,87.23
2023-01-12T00:32:08.967Z,87.15
2023-01-12T00:34:37.991Z,87.60
2023-01-12T00:37:07.526Z,87.79
2023-01-12T00:39:40.375Z,87.05
2023-01-12T00:42:26.677Z,86.98
2023-01-12T00:45:11.985Z,86.53
2023-01-12T00:47:39.935Z,86.52
2023-01-12T00:50:10.047Z,86.54
2023-01-12T00:52:38.071Z,86.73
2023-01-12T00:55:06.333Z,86.80
2023-01-12T00:57:34.107Z,87.09
2023-01-12T01:00:01.970Z,86.76
2023-01-12T01:02:31.291Z,87.23
2023-01-12T01:04:59.247Z,87.14
2023-01-12T01:07:28.523Z,87.19
2023-01-12T01:09:56.465Z,87.10
2023-01-12T01:12:25.055Z,87.08
2023-01-12T01:14:53.425Z,86.16
2023-01-12T01:17:22.048Z,86.62
2023-01-12T01:19:49.690Z,86.83
2023-01-12T01:22:17.460Z,86.58
2023-01-12T01:24:46.486Z,86.23
2023-01-12T01:27:14.260Z,85.82
2023-01-12T01:29:42.616Z,86.27
2023-01-12T01:32:10.555Z,85.58
2023-01-12T01:34:39.528Z,86.20
2023-01-12T01:37:07.281Z,85.85
2023-01-12T01:39:35.434Z,86.01
2023-01-12T01:42:04.630Z,85.74
2023-01-12T01:44:51.756Z,85.79
2023-01-12T01:47:28.004Z,85.84
2023-01-12T01:50:00.819Z,85.38
2023-01-12T01:52:34.415Z,85.56
2023-01-12T01:55:07.925Z,86.03
2023-01-12T01:57:42.326Z,85.64
2023-01-12T02:00:12.902Z,85.98
2023-01-12T02:02:42.976Z,85.84
2023-01-12T02:05:13.628Z,85.70
2023-01-12T02:07:42.034Z,85.47
2023-01-12T02:10:11.215Z,85.97
2023-01-12T02:12:57.843Z,85.58
2023-01-12T02:15:46.860Z,85.32
2023-01-12T02:18:24.235Z,85.42
2023-01-12T02:21:18.545Z,85.77
2023-01-12T02:24:20.511Z,85.54
2023-01-12T02:27:26.073Z,85.14
2023-01-12T02:30:25.986Z,84.75
2023-01-12T02:33:08.832Z,84.99
2023-01-12T02:35:45.150Z,84.87
2023-01-12T02:38:23.547Z,84.83
2023-01-12T02:40:59.595Z,84.63
2023-01-12T02:43:29.852Z,84.71
2023-01-12T02:46:02.664Z,83.92
2023-01-12T02:48:37.686Z,83.99
2023-01-12T02:51:10.899Z,84.66
2023-01-12T02:53:44.775Z,84.58
2023-01-12T02:56:16.411Z,84.81
2023-01-12T02:58:50.243Z,84.17
2023-01-12T03:01:20.544Z,84.67
2023-01-12T03:03:52.164Z,84.08
2023-01-12T03:06:19.920Z,84.00
2023-01-12T03:08:50.535Z,83.64
2023-01-12T03:11:20.127Z,83.49
2023-01-12T03:13:51.368Z,83.43
2023-01-12T03:16:22.123Z,83.71
2023-01-12T03:18:57.051Z,83.08
2023-01-12T03:21:30.995Z,82.75
2023-01-12T03:24:05.204Z,82.59
2023-01-12T03:26:36.452Z,81.77
2023-01-12T03:29:09.489Z,81.38
2023-01-12T03:31:38.589Z,81.25
2023-01-12T03:34:09.300Z,81.65
2023-01-12T03:36:46.074Z,81.31
2023-01-12T03:39:23.146Z,80.88
2023-01-12T03:41:57.798Z,80.95
2023-01-12T03:44:36.256Z,80.56
2023-01-12T03:47:11.390Z,80.68
2023-01-12T03:49:45.529Z,79.82
2023-01-12T03:52:13.908Z,80.29
2023-01-12T03:54:43.754Z,80.09
2023-01-12T03:57:14.083Z,79.74
2023-01-12T03:59:42.971Z,79.61
2023-01-12T04:02:10.933Z,79.73
2023-01-12T04:04:39.265Z,80.12
2023-01-12T04:07:08.295Z,79.30
2023-01-12T04:09:37.726Z,79.20
2023-01-12T04:12:10.602Z,78.96
2023-01-12T04:14:39.470Z,78.99
2023-01-12T04:17:07.573Z,79.54
2023-01-12T04:19:35.588Z,79.29
2023-01-12T04:22:21.019Z,80.05
2023-01-12T04:24:50.487Z,79.45
2023-01-12T04:27:18.925Z,80.13
2023-01-12T04:30:09.456Z,79.73
2023-01-12T04:32:40.144Z,79.59
2023-01-12T04:35:08.723Z,79.81
2023-01-12T04:37:36.441Z,79.44
2023-01-12T04:40:07.380Z,79.72
2023-01-12T04:42:52.621Z,79.54
2023-01-12T04:45:20.627Z,79.28
2023-01-12T04:47:51.178Z,78.92
2023-01-12T04:50:19.273Z,78.87
2023-01-12T04:52:46.907Z,79.55
2023-01-12T04:55:16.115Z,79.22
2023-01-12T04:57:43.768Z,78.94
2023-01-12T05:00:12.636Z,78.60
2023-01-12T05:02:40.278Z,78.26
2023-01-12T05:05:09.955Z,78.42
2023-01-12T05:07:37.674Z,78.67
2023-01-12T05:10:23.198Z,79.01
2023-01-12T05:12:52.193Z,78.80
2023-01-12T05:15:20.328Z,78.74
2023-01-12T05:17:47.951Z,78.68
2023-01-12T05:20:16.421Z,77.97
2023-01-12T05:22:44.246Z,76.98
2023-01-12T05:25:11.926Z,77.78
2023-01-12T05:27:39.564Z,77.29
2023-01-12T05:30:10.592Z,77.01
2023-01-12T05:32:39.060Z,77.24
2023-01-12T05:35:07.917Z,77.41
2023-01-12T05:37:37.113Z,76.85
2023-01-12T05:40:05.527Z,76.81
2023-01-12T05:42:50.774Z,76.40
2023-01-12T05:45:19.879Z,76.11
2023-01-12T05:47:48.000Z,76.39
2023-01-12T05:50:15.879Z,76.63
2023-01-12T05:53:04.228Z,76.54
2023-01-12T05:55:31.894Z,76.02
2023-01-12T05:58:00.857Z,75.80
2023-01-12T06:00:30.266Z,75.88
2023-01-12T06:02:58.451Z,76.16
2023-01-12T06:05:26.097Z,75.96
2023-01-12T06:07:54.211Z,76.53
2023-01-12T06:10:21.881Z,76.69
2023-01-12T06:13:14.563Z,76.57
2023-01-12T06:15:43.761Z,76.66
2023-01-12T06:18:11.797Z,77.29
2023-01-12T06:20:39.475Z,77.57
2023-01-12T06:23:07.428Z,77.45
2023-01-12T06:25:35.068Z,77.22
2023-01-12T06:28:05.987Z,76.79
2023-01-12T06:30:33.671Z,76.67
2023-01-12T06:33:04.625Z,76.41
2023-01-12T06:35:32.266Z,76.27
2023-01-12T06:38:00.809Z,75.52
2023-01-12T06:40:28.451Z,75.10
2023-01-12T06:42:56.916Z,74.76
2023-01-12T06:45:24.548Z,74.61
2023-01-12T06:47:52.494Z,74.34
2023-01-12T06:50:21.528Z,74.43
2023-01-12T06:52:50.299Z,74.87
2023-01-12T06:55:18.051Z,75.50
2023-01-12T06:57:46.052Z,74.79
2023-01-12T07:00:15.078Z,75.09
2023-01-12T07:02:43.155Z,75.22
2023-01-12T07:05:11.148Z,74.71
2023-01-12T07:07:40.743Z,74.87
2023-01-12T07:10:09.383Z,74.85
2023-01-12T07:12:38.062Z,75.29
2023-01-12T07:15:06.951Z,74.67
2023-01-12T07:17:34.756Z,74.40
2023-01-12T07:20:02.420Z,74.63
2023-01-12T07:22:30.535Z,73.88
2023-01-12T07:24:59.555Z,74.14
2023-01-12T07:27:27.648Z,73.92
2023-01-12T07:29:55.825Z,74.30
2023-01-12T07:32:27.113Z,74.00
2023-01-12T07:34:54.740Z,73.96
2023-01-12T07:37:22.785Z,73.36
2023-01-12T07:39:50.449Z,73.13
2023-01-12T07:42:25.727Z,72.57
2023-01-12T07:44:53.780Z,72.32
2023-01-12T07:47:21.636Z,72.91
2023-01-12T07:49:49.793Z,73.43
2023-01-12T07:52:17.696Z,72.61
2023-01-12T07:54:46.494Z,72.70
2023-01-12T07:57:14.641Z,72.88
2023-01-12T07:59:43.992Z,73.14
2023-01-12T08:02:16.342Z,73.07
2023-01-12T08:04:44.748Z,72.56
2023-01-12T08:07:13.239Z,71.22
2023-01-12T08:09:41.232Z,72.05
2023-01-12T08:12:08.952Z,72.30
2023-01-12T08:14:39.328Z,73.05
2023-01-12T08:17:15.699Z,73.26
2023-01-12T08:19:49.070Z,72.68
2023-01-12T08:22:23.444Z,71.60
2023-01-12T08:24:55.306Z,71.97
2023-01-12T08:27:27.461Z,70.31
2023-01-12T08:29:58.514Z,71.42
2023-01-12T08:32:29.460Z,70.76
2023-01-12T08:35:02.154Z,69.69
2023-01-12T08:37:32.488Z,69.44
2023-01-12T08:40:00.988Z,70.35
2023-01-12T08:42:31.533Z,70.83
2023-01-12T08:44:59.562Z,71.11
2023-01-12T08:47:30.557Z,69.58
2023-01-12T08:50:00.306Z,69.60
2023-01-12T08:52:29.403Z,68.80
2023-01-12T08:54:57.450Z,68.34
2023-01-12T08:57:25.103Z,69.05
2023-01-12T08:59:52.817Z,68.01
2023-01-12T09:02:20.499Z,67.85
2023-01-12T09:04:52.682Z,69.23
2023-01-12T09:07:23.311Z,69.25
2023-01-12T09:09:51.372Z,67.84
2023-01-12T09:12:19.200Z,68.09
2023-01-12T09:14:46.856Z,68.61
2023-01-12T09:17:14.558Z,68.93
2023-01-12T09:19:44.133Z,68.18
2023-01-12T09:22:13.146Z,68.76
2023-01-12T09:24:41.791Z,68.45
2023-01-12T09:27:11.401Z,69.13
2023-01-12T09:29:39.362Z,68.68
2023-01-12T09:32:07.005Z,67.97
2023-01-12T09:34:35.373Z,68.37
2023-01-12T09:37:03.101Z,68.86
2023-01-12T09:39:32.360Z,67.63
2023-01-12T09:42:18.045Z,68.24
2023-01-12T09:45:07.320Z,68.68
2023-01-12T09:47:39.079Z,68.48
2023-01-12T09:50:10.791Z,67.47
2023-01-12T09:52:42.506Z,67.41
2023-01-12T09:55:15.821Z,67.75
2023-01-12T09:58:07.491Z,67.33
2023-01-12T10:00:35.522Z,67.68
2023-01-12T10:03:12.816Z,67.44
2023-01-12T10:05:46.427Z,67.17
2023-01-12T10:08:18.807Z,66.64
2023-01-12T10:11:01.080Z,67.18
2023-01-12T10:13:46.543Z,66.81
2023-01-12T10:16:22.363Z,67.44
2023-01-12T10:18:54.800Z,66.22
2023-01-12T10:21:24.667Z,67.21
2023-01-12T10:23:54.833Z,67.08
2023-01-12T10:26:25.844Z,66.86
2023-01-12T10:28:56.237Z,67.39
2023-01-12T10:31:26.113Z,66.66
2023-01-12T10:34:05.004Z,67.64
2023-01-12T10:36:35.815Z,67.98
2023-01-12T10:39:05.563Z,67.05
2023-01-12T10:41:37.726Z,66.88
2023-01-12T10:44:16.580Z,66.48
2023-01-12T10:46:44.984Z,66.65
2023-01-12T10:49:21.206Z,66.55
2023-01-12T10:51:53.094Z,66.64
2023-01-12T10:54:24.445Z,67.06
2023-01-12T10:56:59.780Z,66.87
2023-01-12T10:59:31.432Z,67.05
2023-01-12T11:02:15.725Z,66.03
2023-01-12T11:04:45.979Z,68.07
2023-01-12T11:07:19.860Z,67.11
2023-01-12T11:09:47.560Z,67.60
2023-01-12T11:12:27.554Z,65.57
2023-01-12T11:15:01.273Z,66.56
2023-01-12T11:17:43.678Z,67.63
2023-01-12T11:20:21.514Z,66.98
2023-01-12T11:22:52.625Z,66.54
2023-01-12T11:25:24.558Z,67.66
2023-01-12T11:27:57.879Z,66.59
2023-01-12T11:30:37.231Z,67.98
2023-01-12T11:33:11.951Z,67.54
2023-01-12T11:35:46.557Z,67.65
2023-01-12T11:38:19.664Z,67.41
2023-01-12T11:40:49.038Z,67.56
2023-01-12T11:43:50.204Z,67.19
2023-01-12T11:46:26.911Z,67.51
2023-01-12T11:49:13.640Z,67.61
2023-01-12T11:51:42.972Z,67.72
2023-01-12T11:54:15.167Z,67.54
2023-01-12T11:57:04.651Z,67.21
2023-01-12T11:59:42.537Z,68.02
2023-01-12T12:02:24.327Z,66.86
2023-01-12T12:05:03.892Z,67.00
2023-01-12T12:07:50.511Z,68.33
2023-01-12T12:10:25.322Z,67.78
2023-01-12T12:13:17.816Z,68.00
2023-01-12T12:15:55.923Z,66.31
2023-01-12T12:18:39.949Z,68.01
2023-01-12T12:21:18.085Z,67.21
2023-01-12T12:23:56.949Z,67.41
2023-01-12T12:26:30.842Z,67.30
2023-01-12T12:29:17.209Z,67.14
2023-01-12T12:32:02.781Z,67.59
2023-01-12T12:34:59.939Z,67.50
2023-01-12T12:37:44.323Z,66.98
2023-01-12T12:40:24.422Z,68.95
2023-01-12T12:43:18.640Z,67.40
2023-01-12T12:45:52.742Z,67.13
2023-01-12T12:48:27.147Z,67.28
2023-01-12T12:51:04.367Z,67.24
2023-01-12T12:53:35.839Z,67.61
2023-01-12T12:56:06.724Z,66.11
2023-01-12T12:58:43.842Z,67.15
2023-01-12T13:01:58.533Z,66.08
2023-01-12T13:05:04.992Z,66.36
2023-01-12T13:07:38.407Z,67.39
2023-01-12T13:10:31.334Z,68.26
2023-01-12T13:13:24.200Z,68.54
2023-01-12T13:16:12.411Z,66.20
2023-01-12T13:18:44.782Z,67.00
2023-01-12T13:21:33.610Z,66.78
2023-01-12T13:24:27.401Z,66.10
2023-01-12T13:26:57.735Z,66.39
2023-01-12T13:29:45.577Z,66.60
2023-01-12T13:32:36.640Z,67.07
2023-01-12T13:35:05.034Z,67.48
2023-01-12T13:37:49.304Z,67.81
2023-01-12T13:40:20.979Z,67.61
2023-01-12T13:43:08.433Z,66.58
2023-01-12T13:45:37.870Z,66.56
2023-01-12T13:48:10.503Z,66.48
2023-01-12T13:50:39.307Z,67.31
2023-01-12T13:53:23.668Z,67.44
2023-01-12T13:56:00.243Z,67.90
2023-01-12T13:58:30.180Z,68.08
2023-01-12T14:01:00.190Z,67.57
2023-01-12T14:03:51.519Z,66.94
2023-01-12T14:06:30.220Z,67.81
2023-01-12T14:09:14.391Z,67.61
2023-01-12T14:12:07.711Z,67.75
2023-01-12T14:15:26.252Z,68.96
2023-01-12T14:18:04.068Z,68.18
2023-01-12T14:20:32.357Z,68.20
2023-01-12T14:23:19.181Z,68.13
2023-01-12T14:26:03.678Z,67.98
2023-01-12T14:28:31.851Z,67.65
2023-01-12T14:31:00.004Z,68.90
2023-01-12T14:33:30.516Z,68.03
2023-01-12T14:36:03.971Z,68.63
2023-01-12T14:38:34.500Z,69.03
2023-01-12T14:41:06.803Z,68.61
2023-01-12T14:43:54.273Z,69.21
2023-01-12T14:46:28.177Z,68.64
2023-01-12T14:49:01.651Z,69.08
2023-01-12T14:51:33.942Z,68.58
2023-01-12T14:54:17.603Z,68.71
2023-01-12T14:56:56.259Z,69.29
2023-01-12T14:59:29.055Z,69.24
2023-01-12T15:02:21.922Z,69.36
2023-01-12T15:04:57.645Z,69.77
2023-01-12T15:07:30.204Z,69.52
2023-01-12T15:10:00.239Z,69.17
2023-01-12T15:12:47.482Z,69.61
2023-01-12T15:15:20.874Z,70.21
2023-01-12T15:18:06.886Z,69.61
2023-01-12T15:20:54.908Z,69.75
2023-01-12T15:23:47.940Z,69.98
2023-01-12T15:26:15.612Z,69.87
2023-01-12T15:28:46.096Z,69.66
2023-01-12T15:31:19.192Z,69.71
2023-01-12T15:33:47.091Z,69.71
2023-01-12T15:36:15.300Z,69.46
2023-01-12T15:38:43.065Z,70.09
2023-01-12T15:41:17.694Z,70.34
2023-01-12T15:43:47.047Z,69.93
2023-01-12T15:46:20.550Z,70.56
2023-01-12T15:48:48.401Z,70.45
2023-01-12T15:51:16.939Z,70.63
2023-01-12T15:53:44.720Z,71.04
2023-01-12T15:56:16.435Z,70.57
2023-01-12T15:58:44.096Z,70.96
2023-01-12T16:01:17.890Z,70.69
2023-01-12T16:04:07.239Z,70.68
2023-01-12T16:06:34.892Z,71.22
2023-01-12T16:09:02.560Z,71.20
2023-01-12T16:11:30.555Z,71.51
2023-01-12T16:13:58.465Z,71.73
2023-01-12T16:16:29.080Z,72.01
2023-01-12T16:18:59.787Z,71.56
2023-01-12T16:21:29.125Z,71.69
2023-01-12T16:23:57.850Z,72.17
2023-01-12T16:26:26.056Z,71.93
2023-01-12T16:28:53.818Z,72.47
2023-01-12T16:31:22.338Z,72.01
2023-01-12T16:33:51.459Z,72.34
2023-01-12T16:36:19.576Z,72.12
2023-01-12T16:38:47.396Z,71.78
2023-01-12T16:41:19.082Z,71.75
2023-01-12T16:43:47.572Z,71.58
2023-01-12T16:46:16.421Z,71.52
2023-01-12T16:48:44.393Z,71.29
2023-01-12T16:51:15.085Z,71.61
2023-01-12T16:53:43.506Z,71.85
2023-01-12T16:56:13.122Z,71.71
2023-01-12T16:58:41.936Z,72.02
2023-01-12T17:01:12.496Z,72.48
2023-01-12T17:03:41.552Z,72.27
2023-01-12T17:06:12.517Z,72.41
2023-01-12T17:08:42.447Z,71.86
2023-01-12T17:11:12.768Z,72.65
2023-01-12T17:13:41.129Z,73.01
2023-01-12T17:16:10.428Z,72.35
2023-01-12T17:18:38.947Z,72.59
2023-01-12T17:21:12.890Z,73.08
2023-01-12T17:23:43.503Z,72.92
2023-01-12T17:26:13.963Z,72.78
2023-01-12T17:28:42.112Z,72.88
2023-01-12T17:31:12.461Z,73.09
2023-01-12T17:33:40.609Z,72.73
2023-01-12T17:36:11.976Z,72.48
2023-01-12T17:38:40.554Z,72.60
2023-01-12T17:41:30.785Z,72.21
2023-01-12T17:43:57.645Z,72.37
2023-01-12T17:46:25.626Z,72.44
2023-01-12T17:48:53.456Z,72.13
2023-01-12T17:51:21.672Z,71.82
2023-01-12T17:53:49.703Z,72.48
2023-01-12T17:56:19.058Z,72.04
2023-01-12T17:58:50.746Z,72.17
2023-01-12T18:01:19.175Z,71.58
2023-01-12T18:03:47.354Z,72.07
2023-01-12T18:06:25.751Z,72.11
2023-01-12T18:08:56.252Z,72.47
2023-01-12T18:11:25.952Z,72.46
2023-01-12T18:13:53.913Z,72.48
2023-01-12T18:16:22.742Z,72.77
2023-01-12T18:18:50.987Z,71.76
2023-01-12T18:21:21.610Z,71.87
2023-01-12T18:23:50.200Z,72.32
2023-01-12T18:26:21.151Z,72.23
2023-01-12T18:28:50.821Z,72.71
2023-01-12T18:31:21.157Z,72.55
2023-01-12T18:33:49.226Z,71.63
2023-01-12T18:36:22.080Z,71.96
2023-01-12T18:38:50.773Z,72.20
2023-01-12T18:41:49.394Z,72.24
2023-01-12T18:44:18.438Z,71.41
2023-01-12T18:47:04.105Z,71.55
2023-01-12T18:49:33.428Z,71.87
2023-01-12T18:52:19.607Z,71.54
2023-01-12T18:54:48.419Z,71.32
2023-01-12T18:57:18.342Z,71.49
2023-01-12T18:59:51.321Z,71.04
2023-01-12T19:02:20.728Z,71.21
2023-01-12T19:05:13.674Z,71.50
2023-01-12T19:08:02.311Z,72.04
2023-01-12T19:10:30.080Z,71.68
2023-01-12T19:13:12.883Z,71.45
2023-01-12T19:16:00.120Z,70.87
2023-01-12T19:18:29.149Z,71.08
2023-01-12T19:21:22.250Z,71.68
2023-01-12T19:24:07.566Z,71.56
2023-01-12T19:26:52.723Z,71.68
2023-01-12T19:29:20.387Z,71.64
2023-01-12T19:31:49.480Z,71.74
2023-01-12T19:34:17.315Z,71.29
2023-01-12T19:36:44.933Z,71.60
2023-01-12T19:39:13.454Z,71.63
2023-01-12T19:41:58.695Z,72.76
2023-01-12T19:44:26.658Z,72.23
2023-01-12T19:46:55.676Z,72.35
2023-01-12T19:49:23.683Z,72.58
2023-01-12T19:51:51.323Z,72.27
2023-01-12T19:54:19.288Z,72.10
2023-01-12T19:56:47.578Z,72.44
2023-01-12T19:59:15.855Z,72.44
2023-01-12T20:01:43.576Z,71.91
2023-01-12T20:04:12.952Z,72.19
2023-01-12T20:06:40.611Z,72.71
2023-01-12T20:09:08.807Z,71.99
2023-01-12T20:11:36.752Z,71.45
2023-01-12T20:14:05.281Z,71.40
2023-01-12T20:16:33.610Z,71.27
2023-01-12T20:19:01.983Z,72.07
2023-01-12T20:21:31.002Z,72.22
2023-01-12T20:23:59.356Z,72.73
2023-01-12T20:26:27.058Z,72.57
2023-01-12T20:28:55.079Z,71.88
2023-01-12T20:31:23.324Z,72.20
2023-01-12T20:33:51.686Z,72.31
2023-01-12T20:36:19.345Z,71.97
2023-01-12T20:38:51.139Z,71.79
2023-01-12T20:41:19.736Z,71.50
2023-01-12T20:43:48.062Z,70.96
2023-01-12T20:46:16.084Z,70.75
2023-01-12T20:48:45.707Z,71.22
2023-01-12T20:51:15.375Z,70.59
2023-01-12T20:53:44.470Z,70.26
2023-01-12T20:56:13.647Z,70.38
2023-01-12T20:58:41.464Z,70.99
2023-01-12T21:01:10.388Z,69.93
2023-01-12T21:03:39.147Z,70.46
2023-01-12T21:06:09.897Z,70.66
2023-01-12T21:08:39.234Z,72.15
2023-01-12T21:11:07.402Z,71.00
2023-01-12T21:13:36.930Z,71.14
2023-01-12T21:16:07.172Z,71.34
2023-01-12T21:18:35.588Z,71.33
2023-01-12T21:21:04.809Z,71.56
2023-01-12T21:23:32.798Z,70.46
2023-01-12T21:26:00.746Z,70.23
2023-01-12T21:28:30.421Z,70.71
2023-01-12T21:31:02.980Z,69.96
2023-01-12T21:33:31.185Z,69.96
2023-01-12T21:36:00.452Z,69.82
2023-01-12T21:38:30.328Z,70.62
2023-01-12T21:41:02.397Z,71.12
2023-01-12T21:43:29.418Z,70.91
2023-01-12T21:45:58.655Z,71.22
2023-01-12T21:48:27.643Z,70.97
2023-01-12T21:51:02.186Z,71.41
2023-01-12T21:53:29.802Z,71.21
2023-01-12T21:56:00.460Z,71.05
2023-01-12T21:58:30.237Z,71.24
2023-01-12T22:01:00.082Z,70.77
2023-01-12T22:03:29.900Z,71.76
2023-01-12T22:06:05.450Z,71.33
2023-01-12T22:08:34.718Z,70.76
2023-01-12T22:11:07.414Z,70.92
2023-01-12T22:13:35.295Z,71.17
2023-01-12T22:16:04.104Z,70.63
2023-01-12T22:18:34.198Z,70.81
2023-01-12T22:21:03.178Z,71.72
2023-01-12T22:23:31.183Z,70.94
2023-01-12T22:26:02.119Z,71.14
2023-01-12T22:28:30.156Z,70.69
2023-01-12T22:30:58.162Z,71.42
2023-01-12T22:33:25.947Z,70.94
2023-01-12T22:35:56.153Z,71.02
2023-01-12T22:38:23.823Z,70.78
2023-01-12T22:40:51.498Z,70.79
2023-01-12T22:43:29.331Z,70.12
2023-01-12T22:45:59.098Z,70.90
2023-01-12T22:48:27.907Z,70.40
2023-01-12T22:51:01.944Z,70.68
2023-01-12T22:53:29.584Z,70.60
2023-01-12T22:56:00.343Z,71.08
2023-01-12T22:58:28.152Z,70.69
2023-01-12T23:00:56.452Z,70.48
2023-01-12T23:03:24.271Z,71.00
2023-01-12T23:05:56.419Z,70.57
2023-01-12T23:08:26.152Z,71.19
2023-01-12T23:11:04.018Z,71.33
2023-01-12T23:13:31.845Z,70.74
2023-01-12T23:16:04.715Z,70.88
2023-01-12T23:18:34.371Z,70.80
2023-01-12T23:21:11.319Z,70.86
2023-01-12T23:23:41.600Z,71.18
2023-01-12T23:26:11.919Z,70.63
2023-01-12T23:28:43.825Z,70.56
2023-01-12T23:31:14.472Z,70.82
2023-01-12T23:33:43.699Z,70.52
2023-01-12T23:36:17.475Z,70.61
2023-01-12T23:38:47.111Z,70.27
2023-01-12T23:41:16.668Z,70.47
2023-01-12T23:43:45.073Z,69.94
2023-01-12T23:46:13.549Z,70.20
2023-01-12T23:48:41.739Z,69.88
2023-01-12T23:51:10.483Z,69.72
2023-01-12T23:53:38.337Z,69.79
2023-01-12T23:56:09.997Z,69.38
2023-01-12T23:58:38.319Z,69.29
